createdAt,value
2023-03-11T00:00:49.702Z,100.00
2023-03-11T00:03:19.968Z,100.00
2023-03-11T00:05:48.826Z,100.00
2023-03-11T00:08:18.907Z,100.00
2023-03-11T00:10:48.526Z,100.00
2023-03-11T00:13:18.413Z,100.00
2023-03-11T00:15:49.262Z,100.00
2023-03-11T00:18:17.978Z,100.00
2023-03-11T00:20:47.912Z,100.00
2023-03-11T00:23:16.958Z,100.00
2023-03-11T00:25:47.238Z,100.00
2023-03-11T00:28:17.817Z,100.00
2023-03-11T00:30:47.634Z,100.00
2023-03-11T00:33:17.214Z,100.00
2023-03-11T00:35:45.820Z,100.00
2023-03-11T00:38:17.038Z,100.00
2023-03-11T00:40:46.421Z,100.00
2023-03-11T00:43:14.979Z,100.00
2023-03-11T00:45:44.749Z,100.00
2023-03-11T00:48:13.812Z,100.00
2023-03-11T00:50:42.673Z,100.00
2023-03-11T00:53:12.811Z,100.00
2023-03-11T00:55:41.215Z,100.00
2023-03-11T00:58:09.643Z,100.00
2023-03-11T01:00:37.973Z,100.00
2023-03-11T01:03:07.886Z,100.00
2023-03-11T01:05:36.694Z,100.00
2023-03-11T01:08:05.648Z,100.00
2023-03-11T01:10:36.209Z,100.00
2023-03-11T01:13:04.758Z,100.00
2023-03-11T01:15:35.799Z,100.00
2023-03-11T01:18:05.289Z,100.00
2023-03-11T01:20:35.117Z,100.00
2023-03-11T01:23:03.588Z,100.00
2023-03-11T01:25:32.304Z,100.00
2023-03-11T01:28:00.751Z,100.00
2023-03-11T01:30:30.334Z,100.00
2023-03-11T01:32:59.247Z,100.00
2023-03-11T01:35:29.610Z,100.00
2023-03-11T01:38:00.450Z,100.00
2023-03-11T01:40:36.040Z,100.00
2023-03-11T01:43:06.728Z,100.00
2023-03-11T01:45:42.858Z,100.00
2023-03-11T01:48:12.397Z,100.00
2023-03-11T01:50:45.140Z,100.00
2023-03-11T01:53:16.613Z,100.00
2023-03-11T01:56:04.161Z,100.00
2023-03-11T01:58:36.055Z,100.00
2023-03-11T02:01:05.299Z,100.00
2023-03-11T02:03:35.460Z,100.00
2023-03-11T02:06:07.241Z,100.00
2023-03-11T02:08:36.985Z,100.00
2023-03-11T02:11:09.496Z,100.00
2023-03-11T02:13:38.659Z,100.00
2023-03-11T02:16:07.885Z,100.00
2023-03-11T02:18:37.024Z,100.00
2023-03-11T02:21:13.804Z,100.00
2023-03-11T02:23:50.909Z,100.00
2023-03-11T02:26:25.033Z,100.00
2023-03-11T02:28:55.919Z,100.00
2023-03-11T02:31:25.288Z,100.00
2023-03-11T02:33:55.967Z,100.00
2023-03-11T02:36:39.615Z,100.00
2023-03-11T02:39:08.139Z,100.00
2023-03-11T02:41:38.863Z,100.00
2023-03-11T02:44:11.970Z,100.00
2023-03-11T02:46:43.056Z,100.00
2023-03-11T02:49:11.553Z,100.00
2023-03-11T02:51:39.793Z,100.00
2023-03-11T02:54:08.209Z,100.00
2023-03-11T02:56:36.449Z,100.00
2023-03-11T02:59:04.877Z,100.00
2023-03-11T03:01:34.607Z,100.00
2023-03-11T03:04:02.969Z,100.00
2023-03-11T03:06:31.260Z,100.00
2023-03-11T03:08:59.606Z,100.00
2023-03-11T03:11:27.831Z,100.00
2023-03-11T03:13:56.096Z,100.00
2023-03-11T03:16:24.521Z,100.00
2023-03-11T03:18:54.246Z,100.00
2023-03-11T03:21:22.501Z,100.00
2023-03-11T03:23:50.810Z,100.00
2023-03-11T03:26:19.082Z,100.00
2023-03-11T03:28:47.343Z,100.00
2023-03-11T03:31:15.674Z,100.00
2023-03-11T03:33:43.956Z,100.00
2023-03-11T03:36:15.846Z,100.00
2023-03-11T03:38:44.188Z,100.00
2023-03-11T03:41:14.941Z,100.00
2023-03-11T03:43:43.352Z,100.00
2023-03-11T03:46:11.799Z,100.00
2023-03-11T03:48:40.220Z,100.00
2023-03-11T03:51:10.330Z,100.00
2023-03-11T03:53:40.030Z,100.00
2023-03-11T03:56:09.769Z,100.00
2023-03-11T03:58:38.550Z,100.00
2023-03-11T04:01:08.200Z,100.00
2023-03-11T04:03:38.422Z,100.00
2023-03-11T04:06:12.786Z,100.00
2023-03-11T04:08:42.650Z,100.00
2023-03-11T04:11:11.000Z,100.00
2023-03-11T04:13:39.719Z,100.00
2023-03-11T04:16:09.066Z,100.00
2023-03-11T04:18:37.396Z,100.00
2023-03-11T04:21:07.297Z,100.00
2023-03-11T04:23:36.028Z,100.00
2023-03-11T04:26:06.004Z,100.00
2023-03-11T04:28:34.535Z,100.00
2023-03-11T04:31:02.914Z,100.00
2023-03-11T04:33:31.419Z,100.00
2023-03-11T04:36:00.077Z,100.00
2023-03-11T04:38:28.422Z,100.00
2023-03-11T04:41:01.558Z,100.00
2023-03-11T04:43:31.287Z,100.00
2023-03-11T04:45:59.677Z,100.00
2023-03-11T04:48:28.012Z,100.00
2023-03-11T04:50:56.786Z,100.00
2023-03-11T04:53:25.597Z,100.00
2023-03-11T04:55:54.102Z,100.00
2023-03-11T04:58:22.330Z,100.00
2023-03-11T05:00:52.102Z,100.00
2023-03-11T05:03:20.857Z,100.00
2023-03-11T05:05:49.134Z,100.00
2023-03-11T05:08:17.456Z,100.00
2023-03-11T05:10:45.743Z,100.00
2023-03-11T05:13:13.997Z,100.00
2023-03-11T05:15:42.713Z,100.00
2023-03-11T05:18:12.474Z,100.00
2023-03-11T05:20:41.059Z,100.00
2023-03-11T05:23:09.446Z,100.00
2023-03-11T05:25:37.707Z,100.00
2023-03-11T05:28:06.849Z,100.00
2023-03-11T05:30:35.085Z,100.00
2023-03-11T05:33:03.422Z,100.00
2023-03-11T05:35:33.247Z,100.00
2023-03-11T05:38:01.567Z,100.00
2023-03-11T05:40:29.864Z,100.00
2023-03-11T05:42:58.119Z,100.00
2023-03-11T05:45:26.638Z,100.00
2023-03-11T05:47:54.992Z,100.00
2023-03-11T05:50:23.254Z,100.00
2023-03-11T05:52:56.505Z,100.00
2023-03-11T05:55:24.775Z,100.00
2023-03-11T05:57:53.508Z,100.00
2023-03-11T06:00:22.887Z,100.00
2023-03-11T06:02:51.228Z,100.00
2023-03-11T06:05:19.670Z,100.00
2023-03-11T06:07:48.122Z,100.00
2023-03-11T06:10:18.133Z,100.00
2023-03-11T06:12:46.510Z,100.00
2023-03-11T06:15:14.827Z,100.00
2023-03-11T06:17:43.077Z,100.00
2023-03-11T06:20:12.834Z,100.00
2023-03-11T06:22:41.161Z,100.00
2023-03-11T06:25:10.716Z,100.00
2023-03-11T06:27:40.514Z,100.00
2023-03-11T06:30:10.382Z,100.00
2023-03-11T06:32:38.753Z,100.00
2023-03-11T06:35:07.492Z,100.00
2023-03-11T06:37:37.517Z,100.00
2023-03-11T06:40:07.644Z,100.00
2023-03-11T06:42:36.000Z,100.00
2023-03-11T06:45:06.254Z,100.00
2023-03-11T06:47:34.468Z,100.00
2023-03-11T06:50:09.057Z,100.00
2023-03-11T06:52:37.277Z,100.00
2023-03-11T06:55:06.206Z,100.00
2023-03-11T06:57:35.737Z,100.00
2023-03-11T07:00:07.639Z,100.00
2023-03-11T07:02:35.946Z,100.00
2023-03-11T07:05:04.616Z,100.00
2023-03-11T07:07:32.925Z,100.00
2023-03-11T07:10:02.323Z,100.00
2023-03-11T07:12:30.639Z,100.00
2023-03-11T07:14:59.939Z,100.00
2023-03-11T07:17:29.849Z,100.00
2023-03-11T07:19:58.123Z,100.00
2023-03-11T07:22:26.421Z,93.64
2023-03-11T07:24:56.315Z,89.62
2023-03-11T07:27:24.603Z,91.04
2023-03-11T07:29:52.834Z,80.85
2023-03-11T07:32:21.162Z,76.10
2023-03-11T07:34:50.901Z,69.87
2023-03-11T07:37:19.227Z,69.21
2023-03-11T07:39:47.499Z,67.96
2023-03-11T07:42:15.938Z,63.95
2023-03-11T07:44:44.258Z,63.23
2023-03-11T07:47:12.533Z,61.73
2023-03-11T07:49:40.908Z,63.60
2023-03-11T07:52:10.580Z,59.94
2023-03-11T07:54:38.888Z,59.92
2023-03-11T07:57:08.770Z,58.32
2023-03-11T07:59:37.116Z,57.50
2023-03-11T08:02:05.381Z,54.65
2023-03-11T08:04:33.769Z,54.39
2023-03-11T08:07:02.124Z,54.94
2023-03-11T08:09:31.809Z,57.08
2023-03-11T08:12:00.127Z,54.16
2023-03-11T08:14:28.413Z,51.96
2023-03-11T08:16:56.718Z,53.48
2023-03-11T08:19:25.019Z,50.90
2023-03-11T08:21:53.241Z,50.28
2023-03-11T08:24:21.491Z,50.38
2023-03-11T08:26:51.211Z,50.39
2023-03-11T08:29:19.480Z,50.37
2023-03-11T08:31:47.944Z,46.84
2023-03-11T08:34:16.320Z,46.29
2023-03-11T08:36:45.222Z,48.05
2023-03-11T08:39:13.637Z,47.45
2023-03-11T08:41:41.970Z,47.17
2023-03-11T08:44:11.763Z,45.54
2023-03-11T08:46:40.775Z,44.58
2023-03-11T08:49:09.154Z,43.90
2023-03-11T08:51:38.128Z,41.77
2023-03-11T08:54:07.236Z,43.73
2023-03-11T08:56:35.597Z,42.20
2023-03-11T08:59:07.210Z,42.08
2023-03-11T09:01:36.912Z,43.85
2023-03-11T09:04:05.594Z,44.48
2023-03-11T09:06:33.846Z,44.23
2023-03-11T09:09:04.048Z,42.50
2023-03-11T09:11:32.376Z,44.65
2023-03-11T09:14:00.620Z,47.82
2023-03-11T09:16:29.006Z,48.38
2023-03-11T09:19:00.484Z,47.80
2023-03-11T09:21:28.795Z,46.86
2023-03-11T09:23:57.117Z,45.15
2023-03-11T09:26:25.469Z,43.68
2023-03-11T09:28:53.923Z,42.13
2023-03-11T09:31:22.252Z,42.74
2023-03-11T09:33:52.906Z,41.88
2023-03-11T09:36:23.778Z,43.52
2023-03-11T09:38:52.128Z,42.78
2023-03-11T09:41:28.733Z,44.22
2023-03-11T09:44:19.606Z,43.42
2023-03-11T09:47:05.045Z,42.08
2023-03-11T09:49:47.363Z,42.07
2023-03-11T09:52:18.943Z,43.55
2023-03-11T09:54:49.509Z,42.32
2023-03-11T09:57:21.023Z,39.49
2023-03-11T09:59:50.029Z,38.85
2023-03-11T10:02:21.323Z,40.47
2023-03-11T10:04:57.210Z,40.41
2023-03-11T10:07:33.607Z,40.49
2023-03-11T10:10:01.977Z,39.43
2023-03-11T10:12:45.079Z,38.99
2023-03-11T10:15:24.876Z,38.26
2023-03-11T10:18:25.537Z,37.96
2023-03-11T10:21:00.980Z,36.47
2023-03-11T10:23:42.168Z,38.31
2023-03-11T10:26:15.126Z,38.22
2023-03-11T10:28:47.785Z,41.07
2023-03-11T10:31:23.667Z,40.14
2023-03-11T10:33:56.537Z,40.61
2023-03-11T10:36:28.584Z,41.00
2023-03-11T10:38:58.755Z,40.79
2023-03-11T10:41:32.478Z,41.68
2023-03-11T10:44:05.973Z,41.42
2023-03-11T10:46:34.352Z,41.96
2023-03-11T10:49:02.714Z,42.31
2023-03-11T10:51:36.654Z,40.89
2023-03-11T10:54:06.629Z,41.23
2023-03-11T10:56:37.143Z,41.07
2023-03-11T10:59:24.954Z,42.21
2023-03-11T11:01:58.020Z,42.12
2023-03-11T11:04:32.815Z,43.77
2023-03-11T11:07:22.756Z,42.02
2023-03-11T11:10:15.098Z,41.54
2023-03-11T11:12:55.148Z,40.95
2023-03-11T11:15:29.195Z,37.54
2023-03-11T11:17:59.959Z,37.40
2023-03-11T11:20:30.187Z,37.34
2023-03-11T11:23:00.476Z,37.17
2023-03-11T11:25:33.813Z,39.88
2023-03-11T11:28:05.386Z,41.54
2023-03-11T11:30:33.731Z,43.18
2023-03-11T11:33:24.253Z,43.04
2023-03-11T11:35:55.368Z,42.83
2023-03-11T11:38:25.812Z,44.70
2023-03-11T11:40:58.071Z,44.73
2023-03-11T11:43:43.109Z,45.28
2023-03-11T11:46:21.032Z,45.21
2023-03-11T11:48:57.483Z,44.17
2023-03-11T11:51:32.682Z,43.66
2023-03-11T11:54:04.151Z,43.60
2023-03-11T11:56:34.057Z,43.89
2023-03-11T11:59:02.603Z,43.24
2023-03-11T12:01:41.254Z,43.17
2023-03-11T12:04:32.061Z,44.22
2023-03-11T12:07:19.911Z,45.13
2023-03-11T12:09:58.005Z,46.89
2023-03-11T12:12:35.222Z,48.21
2023-03-11T12:15:12.328Z,49.39
2023-03-11T12:17:46.126Z,50.90
2023-03-11T12:20:22.052Z,53.39
2023-03-11T12:23:29.715Z,55.47
2023-03-11T12:26:07.332Z,55.34
2023-03-11T12:28:44.676Z,53.04
2023-03-11T12:31:14.774Z,51.88
2023-03-11T12:33:45.311Z,52.52
2023-03-11T12:36:25.232Z,52.01
2023-03-11T12:38:55.022Z,51.66
2023-03-11T12:41:33.770Z,52.07
2023-03-11T12:44:22.591Z,53.06
2023-03-11T12:47:21.414Z,53.08
2023-03-11T12:49:54.995Z,52.94
2023-03-11T12:52:31.074Z,52.01
2023-03-11T12:55:38.886Z,51.98
2023-03-11T12:58:57.914Z,51.09
2023-03-11T13:01:58.204Z,50.61
2023-03-11T13:04:34.405Z,49.17
2023-03-11T13:07:44.590Z,50.58
2023-03-11T13:10:20.491Z,51.40
2023-03-11T13:12:50.048Z,50.49
2023-03-11T13:15:32.266Z,52.05
2023-03-11T13:18:05.356Z,52.65
2023-03-11T13:20:51.809Z,53.52
2023-03-11T13:23:41.686Z,55.85
2023-03-11T13:26:33.262Z,56.56
2023-03-11T13:29:17.505Z,58.16
2023-03-11T13:31:59.059Z,56.75
2023-03-11T13:34:40.677Z,56.41
2023-03-11T13:37:23.056Z,56.96
2023-03-11T13:40:01.597Z,54.43
2023-03-11T13:42:34.637Z,53.79
2023-03-11T13:45:05.199Z,53.98
2023-03-11T13:47:35.072Z,53.10
2023-03-11T13:50:08.220Z,50.50
2023-03-11T13:52:39.357Z,49.36
2023-03-11T13:55:17.003Z,49.42
2023-03-11T13:57:52.672Z,49.13
2023-03-11T14:00:24.351Z,48.49
2023-03-11T14:02:55.528Z,48.46
2023-03-11T14:05:28.244Z,48.28
2023-03-11T14:07:56.601Z,48.75
2023-03-11T14:10:28.289Z,46.80
2023-03-11T14:13:17.524Z,45.32
2023-03-11T14:15:52.563Z,45.29
2023-03-11T14:18:29.921Z,46.94
2023-03-11T14:20:59.989Z,45.76
2023-03-11T14:23:32.562Z,44.48
2023-03-11T14:26:04.756Z,45.05
2023-03-11T14:28:37.134Z,48.70
2023-03-11T14:31:06.209Z,48.16
2023-03-11T14:33:34.531Z,46.14
2023-03-11T14:36:11.291Z,46.26
2023-03-11T14:38:44.465Z,47.23
2023-03-11T14:41:15.508Z,48.28
2023-03-11T14:43:47.581Z,49.32
2023-03-11T14:46:23.559Z,48.56
2023-03-11T14:48:52.526Z,47.34
2023-03-11T14:51:26.054Z,48.02
2023-03-11T14:54:01.137Z,48.72
2023-03-11T14:56:29.716Z,47.97
2023-03-11T14:59:08.132Z,47.67
2023-03-11T15:01:40.814Z,48.18
2023-03-11T15:04:13.422Z,47.76
2023-03-11T15:06:45.274Z,50.42
2023-03-11T15:09:16.621Z,50.67
2023-03-11T15:11:50.620Z,51.12
2023-03-11T15:14:23.060Z,50.06
2023-03-11T15:16:52.188Z,51.30
2023-03-11T15:19:34.612Z,50.13
2023-03-11T15:22:21.603Z,49.96
2023-03-11T15:24:53.045Z,49.65
2023-03-11T15:27:30.214Z,48.96
2023-03-11T15:29:59.700Z,50.30
2023-03-11T15:32:41.339Z,50.72
2023-03-11T15:35:19.609Z,50.64
2023-03-11T15:37:50.516Z,50.63
2023-03-11T15:40:35.298Z,51.40
2023-03-11T15:43:24.856Z,52.31
2023-03-11T15:45:55.291Z,53.29
2023-03-11T15:48:24.015Z,54.86
2023-03-11T15:50:54.890Z,56.60
2023-03-11T15:53:26.242Z,56.57
2023-03-11T15:56:03.530Z,56.80
2023-03-11T15:58:34.909Z,56.10
2023-03-11T16:01:03.429Z,58.56
2023-03-11T16:03:31.737Z,58.37
2023-03-11T16:06:00.115Z,57.15
2023-03-11T16:08:29.909Z,56.15
2023-03-11T16:10:58.859Z,55.30
2023-03-11T16:13:27.140Z,54.61
2023-03-11T16:15:55.416Z,56.39
2023-03-11T16:18:23.721Z,58.48
2023-03-11T16:20:54.311Z,58.83
2023-03-11T16:23:25.990Z,59.75
2023-03-11T16:26:00.100Z,59.56
2023-03-11T16:28:28.671Z,60.07
2023-03-11T16:30:57.585Z,60.08
2023-03-11T16:33:26.144Z,60.06
2023-03-11T16:35:54.511Z,59.08
2023-03-11T16:38:23.334Z,58.63
2023-03-11T16:40:59.044Z,59.28
2023-03-11T16:43:27.796Z,60.01
2023-03-11T16:45:56.242Z,61.07
2023-03-11T16:48:25.238Z,60.64
2023-03-11T16:50:53.575Z,61.32
2023-03-11T16:53:22.123Z,61.98
2023-03-11T16:55:50.417Z,63.57
2023-03-11T16:58:20.207Z,64.30
2023-03-11T17:00:48.953Z,65.04
2023-03-11T17:03:21.654Z,65.83
2023-03-11T17:05:50.876Z,67.12
2023-03-11T17:08:19.393Z,69.50
2023-03-11T17:10:47.692Z,70.55
2023-03-11T17:13:18.955Z,70.60
2023-03-11T17:15:58.577Z,72.66
2023-03-11T17:18:26.957Z,81.34
2023-03-11T17:20:55.610Z,85.27
2023-03-11T17:23:24.515Z,86.80
2023-03-11T17:25:52.815Z,90.24
2023-03-11T17:28:21.228Z,90.06
2023-03-11T17:30:50.967Z,93.08
2023-03-11T17:33:19.258Z,91.59
2023-03-11T17:35:47.554Z,95.01
2023-03-11T17:38:16.683Z,92.87
2023-03-11T17:40:45.193Z,88.55
2023-03-11T17:43:13.429Z,87.48
2023-03-11T17:45:42.223Z,87.92
2023-03-11T17:48:11.869Z,87.15
2023-03-11T17:50:40.763Z,87.44
2023-03-11T17:53:09.433Z,85.83
2023-03-11T17:55:40.955Z,85.76
2023-03-11T17:58:10.534Z,90.29
2023-03-11T18:00:38.796Z,91.49
2023-03-11T18:03:07.099Z,93.95
2023-03-11T18:05:38.246Z,93.93
2023-03-11T18:08:06.940Z,96.21
2023-03-11T18:10:35.614Z,95.84
2023-03-11T18:13:03.829Z,95.27
2023-03-11T18:15:32.131Z,93.60
2023-03-11T18:18:00.434Z,97.13
2023-03-11T18:20:28.669Z,100.00
2023-03-11T18:22:58.337Z,98.13
2023-03-11T18:25:26.693Z,97.81
2023-03-11T18:27:54.952Z,95.52
2023-03-11T18:30:23.552Z,94.57
2023-03-11T18:32:51.896Z,100.00
2023-03-11T18:35:20.126Z,100.00
2023-03-11T18:37:48.324Z,100.00
2023-03-11T18:40:18.251Z,100.00
2023-03-11T18:42:46.487Z,100.00
2023-03-11T18:45:14.901Z,100.00
2023-03-11T18:47:43.235Z,100.00
2023-03-11T18:50:12.921Z,100.00
2023-03-11T18:52:41.182Z,100.00
2023-03-11T18:55:10.292Z,100.00
2023-03-11T18:57:41.800Z,100.00
2023-03-11T19:00:11.346Z,100.00
2023-03-11T19:02:39.593Z,100.00
2023-03-11T19:05:08.862Z,100.00
2023-03-11T19:07:37.225Z,98.76
2023-03-11T19:10:06.182Z,97.35
2023-03-11T19:12:34.585Z,98.12
2023-03-11T19:15:04.800Z,100.00
2023-03-11T19:17:33.212Z,93.54
2023-03-11T19:20:01.476Z,91.11
2023-03-11T19:22:29.808Z,87.77
2023-03-11T19:24:58.055Z,86.20
2023-03-11T19:27:26.290Z,85.64
2023-03-11T19:29:54.579Z,84.28
2023-03-11T19:32:24.508Z,83.13
2023-03-11T19:34:52.898Z,82.33
2023-03-11T19:37:21.186Z,82.66
2023-03-11T19:39:49.425Z,81.11
2023-03-11T19:42:17.711Z,79.98
2023-03-11T19:44:46.459Z,79.31
2023-03-11T19:47:14.954Z,78.81
2023-03-11T19:49:44.615Z,79.76
2023-03-11T19:52:13.826Z,81.15
2023-03-11T19:54:42.089Z,81.83
2023-03-11T19:57:10.459Z,83.39
2023-03-11T19:59:38.829Z,83.96
2023-03-11T20:02:07.322Z,85.63
2023-03-11T20:04:35.709Z,86.55
2023-03-11T20:07:05.498Z,86.10
2023-03-11T20:09:33.889Z,84.63
2023-03-11T20:12:02.294Z,83.81
2023-03-11T20:14:30.635Z,83.49
2023-03-11T20:16:59.068Z,84.36
2023-03-11T20:19:27.435Z,84.81
2023-03-11T20:21:55.814Z,90.66
2023-03-11T20:24:30.599Z,97.51
2023-03-11T20:26:59.111Z,100.00
2023-03-11T20:29:27.429Z,100.00
2023-03-11T20:31:55.768Z,100.00
2023-03-11T20:34:24.182Z,97.13
2023-03-11T20:36:52.537Z,97.92
2023-03-11T20:39:20.829Z,100.00
2023-03-11T20:41:50.567Z,98.75
2023-03-11T20:44:18.921Z,98.62
2023-03-11T20:46:47.440Z,95.38
2023-03-11T20:49:16.017Z,90.89
2023-03-11T20:51:48.218Z,88.14
2023-03-11T20:54:16.854Z,90.65
2023-03-11T20:56:45.250Z,90.66
2023-03-11T20:59:15.218Z,92.08
2023-03-11T21:01:44.871Z,92.29
2023-03-11T21:04:15.989Z,93.30
2023-03-11T21:06:44.928Z,91.83
2023-03-11T21:09:15.900Z,90.31
2023-03-11T21:11:44.284Z,91.35
2023-03-11T21:14:15.880Z,87.67
2023-03-11T21:16:45.480Z,84.21
2023-03-11T21:19:14.905Z,85.94
2023-03-11T21:21:45.296Z,88.75
2023-03-11T21:24:13.731Z,87.14
2023-03-11T21:26:44.447Z,84.85
2023-03-11T21:29:14.309Z,83.14
2023-03-11T21:31:42.867Z,84.87
2023-03-11T21:34:12.421Z,85.88
2023-03-11T21:36:40.880Z,85.75
2023-03-11T21:39:09.443Z,85.47
2023-03-11T21:41:37.897Z,84.76
2023-03-11T21:44:06.412Z,84.09
2023-03-11T21:46:36.361Z,84.43
2023-03-11T21:49:04.799Z,87.98
2023-03-11T21:51:33.217Z,91.79
2023-03-11T21:54:02.465Z,92.27
2023-03-11T21:56:30.753Z,94.04
2023-03-11T21:58:59.095Z,95.06
2023-03-11T22:01:27.766Z,97.61
2023-03-11T22:03:57.848Z,96.86
2023-03-11T22:06:26.300Z,96.50
2023-03-11T22:08:54.694Z,96.94
2023-03-11T22:11:23.123Z,97.46
2023-03-11T22:13:52.854Z,96.76
2023-03-11T22:16:21.919Z,92.86
2023-03-11T22:18:50.816Z,86.84
2023-03-11T22:21:21.904Z,82.01
2023-03-11T22:23:50.277Z,81.38
2023-03-11T22:26:18.750Z,79.75
2023-03-11T22:28:47.095Z,78.20
2023-03-11T22:31:18.748Z,77.43
2023-03-11T22:33:47.576Z,77.56
2023-03-11T22:36:16.040Z,76.43
2023-03-11T22:38:45.866Z,76.35
2023-03-11T22:41:16.944Z,75.06
2023-03-11T22:43:45.141Z,74.46
2023-03-11T22:46:13.630Z,75.32
2023-03-11T22:48:41.990Z,74.10
2023-03-11T22:51:10.427Z,77.23
2023-03-11T22:53:38.758Z,72.86
2023-03-11T22:56:14.014Z,73.14
2023-03-11T22:58:42.639Z,72.99
2023-03-11T23:01:11.360Z,71.38
2023-03-11T23:03:40.102Z,72.95
2023-03-11T23:06:09.975Z,71.37
2023-03-11T23:08:38.331Z,71.62
2023-03-11T23:11:09.355Z,71.59
2023-03-11T23:13:40.467Z,71.29
2023-03-11T23:16:11.424Z,71.65
2023-03-11T23:18:40.403Z,72.28
2023-03-11T23:21:16.119Z,72.47
2023-03-11T23:23:44.573Z,71.53
2023-03-11T23:26:14.031Z,70.40
2023-03-11T23:28:44.416Z,72.03
2023-03-11T23:31:15.331Z,70.56
2023-03-11T23:33:43.820Z,71.37
2023-03-11T23:36:14.860Z,72.30
2023-03-11T23:38:43.619Z,72.40
2023-03-11T23:41:14.390Z,72.02
2023-03-11T23:43:44.525Z,71.76
2023-03-11T23:46:13.308Z,72.03
2023-03-11T23:48:42.135Z,72.24
2023-03-11T23:51:10.413Z,72.40
2023-03-11T23:53:39.038Z,70.22
2023-03-11T23:56:11.820Z,71.24
2023-03-11T23:58:40.112Z,70.02
